Sign in

Advertise on goboko.com

You can reach many thousands of active pilots each month by advertising on goboko.com.

Please contact us for details.

Advertising

Info

Aviation weather - KJYO

METAR KJYO 292035Z AUTO 19004KT 10SM CLR 27/15 A3015 RMK AO2

TAF KIAD 281720Z 2818/2924 33012KT P6SM FEW050 FM282300 34007KT P6SM FEW050 FM290100 35004KT P6SM SKC FM291700 11004KT P6SM FEW250

ADDS Experimental. Do not use for flight-related decisions.

Javascript required. Ce site nécessite javascript